sensor_id;sensor_type;location;lat;lon;timestamp;pressure;altitude;pressure_sealevel;temperature;humidity
68712;BME280;55690;51.566;19.198;2024-01-11T00:02:42;102871.83;;;-7.03;89.42
68712;BME280;55690;51.566;19.198;2024-01-11T00:06:49;102873.33;;;-7.12;88.83
68712;BME280;55690;51.566;19.198;2024-01-11T00:10:54;102866.89;;;-7.20;89.66
68712;BME280;55690;51.566;19.198;2024-01-11T00:15:00;102850.95;;;-7.23;90.27
68712;BME280;55690;51.566;19.198;2024-01-11T00:19:06;102847.38;;;-7.25;90.06
68712;BME280;55690;51.566;19.198;2024-01-11T00:23:13;102833.42;;;-7.21;89.40
68712;BME280;55690;51.566;19.198;2024-01-11T00:27:19;102828.99;;;-7.22;89.95
68712;BME280;55690;51.566;19.198;2024-01-11T00:31:25;102833.97;;;-7.31;89.87
68712;BME280;55690;51.566;19.198;2024-01-11T00:35:31;102826.95;;;-7.30;90.64
68712;BME280;55690;51.566;19.198;2024-01-11T00:39:37;102817.09;;;-7.36;90.90
68712;BME280;55690;51.566;19.198;2024-01-11T00:43:44;102814.00;;;-7.23;90.09
68712;BME280;55690;51.566;19.198;2024-01-11T00:47:50;102819.92;;;-7.30;90.38
68712;BME280;55690;51.566;19.198;2024-01-11T00:51:56;102817.49;;;-7.24;90.63
68712;BME280;55690;51.566;19.198;2024-01-11T00:56:03;102814.10;;;-7.20;90.69
68712;BME280;55690;51.566;19.198;2024-01-11T01:00:10;102821.78;;;-7.27;90.98
68712;BME280;55690;51.566;19.198;2024-01-11T01:04:15;102810.05;;;-7.37;91.00
68712;BME280;55690;51.566;19.198;2024-01-11T01:08:21;102799.56;;;-7.34;91.12
68712;BME280;55690;51.566;19.198;2024-01-11T01:12:27;102798.62;;;-7.36;91.53
68712;BME280;55690;51.566;19.198;2024-01-11T01:16:33;102791.84;;;-7.28;91.51
68712;BME280;55690;51.566;19.198;2024-01-11T01:20:40;102777.05;;;-7.23;91.07
68712;BME280;55690;51.566;19.198;2024-01-11T01:24:46;102779.04;;;-7.16;90.76
68712;BME280;55690;51.566;19.198;2024-01-11T01:28:52;102778.48;;;-7.06;90.47
68712;BME280;55690;51.566;19.198;2024-01-11T01:32:58;102769.97;;;-7.24;91.21
68712;BME280;55690;51.566;19.198;2024-01-11T01:37:04;102769.51;;;-7.11;91.10
68712;BME280;55690;51.566;19.198;2024-01-11T01:41:11;102752.82;;;-7.10;90.83
68712;BME280;55690;51.566;19.198;2024-01-11T01:45:17;102748.11;;;-7.20;90.32
68712;BME280;55690;51.566;19.198;2024-01-11T01:49:23;102726.86;;;-7.24;91.25
68712;BME280;55690;51.566;19.198;2024-01-11T01:53:30;102723.92;;;-7.05;90.63
68712;BME280;55690;51.566;19.198;2024-01-11T01:57:36;102731.88;;;-7.03;90.21
68712;BME280;55690;51.566;19.198;2024-01-11T02:01:42;102719.53;;;-7.05;90.05
68712;BME280;55690;51.566;19.198;2024-01-11T02:05:48;102724.73;;;-7.08;89.72
68712;BME280;55690;51.566;19.198;2024-01-11T02:09:55;102735.00;;;-6.87;89.36
68712;BME280;55690;51.566;19.198;2024-01-11T02:14:00;102733.05;;;-6.94;89.28
68712;BME280;55690;51.566;19.198;2024-01-11T02:18:07;102741.17;;;-6.86;89.24
68712;BME280;55690;51.566;19.198;2024-01-11T02:22:20;102744.10;;;-7.07;89.72
68712;BME280;55690;51.566;19.198;2024-01-11T02:26:23;102739.72;;;-7.07;90.24
68712;BME280;55690;51.566;19.198;2024-01-11T02:30:25;102751.09;;;-7.09;90.49
68712;BME280;55690;51.566;19.198;2024-01-11T02:34:32;102737.45;;;-6.94;90.32
68712;BME280;55690;51.566;19.198;2024-01-11T02:38:38;102727.84;;;-6.91;90.13
68712;BME280;55690;51.566;19.198;2024-01-11T02:42:44;102736.46;;;-6.98;90.23
68712;BME280;55690;51.566;19.198;2024-01-11T02:46:50;102752.45;;;-6.92;90.11
68712;BME280;55690;51.566;19.198;2024-01-11T02:50:59;102771.03;;;-6.89;90.26
68712;BME280;55690;51.566;19.198;2024-01-11T02:55:03;102758.91;;;-6.82;89.29
68712;BME280;55690;51.566;19.198;2024-01-11T02:59:08;102767.51;;;-6.89;89.45
68712;BME280;55690;51.566;19.198;2024-01-11T03:03:15;102738.34;;;-6.94;89.81
68712;BME280;55690;51.566;19.198;2024-01-11T03:07:21;102704.45;;;-7.09;90.09
68712;BME280;55690;51.566;19.198;2024-01-11T03:11:27;102723.92;;;-7.05;90.62
68712;BME280;55690;51.566;19.198;2024-01-11T03:15:33;102733.59;;;-7.06;90.01
68712;BME280;55690;51.566;19.198;2024-01-11T03:19:40;102703.97;;;-6.95;90.02
68712;BME280;55690;51.566;19.198;2024-01-11T03:23:46;102693.90;;;-7.09;90.49
68712;BME280;55690;51.566;19.198;2024-01-11T03:27:52;102661.15;;;-7.15;90.11
68712;BME280;55690;51.566;19.198;2024-01-11T03:31:58;102688.52;;;-7.12;89.96
68712;BME280;55690;51.566;19.198;2024-01-11T03:36:11;102696.53;;;-7.09;90.31
68712;BME280;55690;51.566;19.198;2024-01-11T03:40:13;102661.50;;;-7.03;90.49
68712;BME280;55690;51.566;19.198;2024-01-11T03:44:17;102657.02;;;-7.06;89.72
68712;BME280;55690;51.566;19.198;2024-01-11T03:48:23;102648.51;;;-7.25;89.90
68712;BME280;55690;51.566;19.198;2024-01-11T03:52:29;102648.42;;;-6.98;89.25
68712;BME280;55690;51.566;19.198;2024-01-11T03:56:39;102680.62;;;-6.80;88.59
68712;BME280;55690;51.566;19.198;2024-01-11T04:00:42;102670.22;;;-6.74;88.85
68712;BME280;55690;51.566;19.198;2024-01-11T04:04:49;102671.50;;;-6.60;88.80
68712;BME280;55690;51.566;19.198;2024-01-11T04:08:55;102640.84;;;-6.53;88.91
68712;BME280;55690;51.566;19.198;2024-01-11T04:13:01;102628.82;;;-6.41;88.66
68712;BME280;55690;51.566;19.198;2024-01-11T04:17:07;102622.63;;;-6.41;87.93
68712;BME280;55690;51.566;19.198;2024-01-11T04:21:23;102584.34;;;-6.22;88.33
68712;BME280;55690;51.566;19.198;2024-01-11T04:25:25;102585.16;;;-6.25;87.69
68712;BME280;55690;51.566;19.198;2024-01-11T04:29:26;102584.27;;;-6.25;86.89
68712;BME280;55690;51.566;19.198;2024-01-11T04:33:32;102600.28;;;-6.19;86.71
68712;BME280;55690;51.566;19.198;2024-01-11T04:37:38;102604.08;;;-6.08;86.99
68712;BME280;55690;51.566;19.198;2024-01-11T04:41:45;102612.35;;;-5.93;86.79
68712;BME280;55690;51.566;19.198;2024-01-11T04:45:51;102585.77;;;-5.99;85.61
68712;BME280;55690;51.566;19.198;2024-01-11T04:49:57;102584.27;;;-5.86;85.09
68712;BME280;55690;51.566;19.198;2024-01-11T04:54:03;102578.10;;;-5.85;85.46
68712;BME280;55690;51.566;19.198;2024-01-11T04:58:09;102560.62;;;-5.79;85.22
68712;BME280;55690;51.566;19.198;2024-01-11T05:02:16;102577.38;;;-5.78;85.06
68712;BME280;55690;51.566;19.198;2024-01-11T05:06:22;102587.87;;;-5.83;85.81
68712;BME280;55690;51.566;19.198;2024-01-11T05:10:28;102583.47;;;-5.82;85.49
68712;BME280;55690;51.566;19.198;2024-01-11T05:14:34;102573.91;;;-5.76;85.36
68712;BME280;55690;51.566;19.198;2024-01-11T05:18:40;102540.41;;;-5.75;85.32
68712;BME280;55690;51.566;19.198;2024-01-11T05:22:46;102520.77;;;-5.86;86.16
68712;BME280;55690;51.566;19.198;2024-01-11T05:26:53;102497.70;;;-5.95;85.51
68712;BME280;55690;51.566;19.198;2024-01-11T05:31:00;102485.33;;;-5.96;86.55
68712;BME280;55690;51.566;19.198;2024-01-11T05:35:05;102490.21;;;-6.16;86.03
68712;BME280;55690;51.566;19.198;2024-01-11T05:39:11;102470.97;;;-6.09;86.00
68712;BME280;55690;51.566;19.198;2024-01-11T05:43:18;102447.31;;;-6.01;86.02
68712;BME280;55690;51.566;19.198;2024-01-11T05:47:24;102463.00;;;-6.10;85.51
68712;BME280;55690;51.566;19.198;2024-01-11T05:51:30;102472.96;;;-5.97;85.18
68712;BME280;55690;51.566;19.198;2024-01-11T05:55:36;102458.89;;;-5.96;84.65
68712;BME280;55690;51.566;19.198;2024-01-11T05:59:45;102449.39;;;-5.85;84.09
68712;BME280;55690;51.566;19.198;2024-01-11T06:03:49;102478.42;;;-5.89;84.46
68712;BME280;55690;51.566;19.198;2024-01-11T06:07:55;102488.21;;;-5.84;84.06
68712;BME280;55690;51.566;19.198;2024-01-11T06:12:01;102495.41;;;-5.77;84.17
68712;BME280;55690;51.566;19.198;2024-01-11T06:16:07;102499.05;;;-5.72;83.91
68712;BME280;55690;51.566;19.198;2024-01-11T06:20:14;102498.92;;;-5.78;84.31
68712;BME280;55690;51.566;19.198;2024-01-11T06:24:20;102487.77;;;-5.61;83.83
68712;BME280;55690;51.566;19.198;2024-01-11T06:28:26;102485.78;;;-5.73;84.04
68712;BME280;55690;51.566;19.198;2024-01-11T06:32:32;102483.94;;;-5.77;83.86
68712;BME280;55690;51.566;19.198;2024-01-11T06:36:38;102491.34;;;-5.59;83.99
68712;BME280;55690;51.566;19.198;2024-01-11T06:40:44;102474.72;;;-5.52;84.16
68712;BME280;55690;51.566;19.198;2024-01-11T06:44:51;102450.74;;;-5.60;83.83
68712;BME280;55690;51.566;19.198;2024-01-11T06:48:57;102483.61;;;-5.49;84.03
68712;BME280;55690;51.566;19.198;2024-01-11T06:53:03;102483.88;;;-5.35;84.21
68712;BME280;55690;51.566;19.198;2024-01-11T06:57:09;102488.00;;;-5.49;84.29
68712;BME280;55690;51.566;19.198;2024-01-11T07:01:15;102487.44;;;-5.33;84.43
68712;BME280;55690;51.566;19.198;2024-01-11T07:05:22;102490.45;;;-5.13;84.20
68712;BME280;55690;51.566;19.198;2024-01-11T07:09:28;102494.09;;;-5.07;83.90
68712;BME280;55690;51.566;19.198;2024-01-11T07:13:34;102476.91;;;-5.30;84.09
68712;BME280;55690;51.566;19.198;2024-01-11T07:17:40;102484.16;;;-5.20;84.77
68712;BME280;55690;51.566;19.198;2024-01-11T07:21:46;102472.30;;;-5.40;85.31
68712;BME280;55690;51.566;19.198;2024-01-11T07:25:53;102486.81;;;-5.20;85.56
68712;BME280;55690;51.566;19.198;2024-01-11T07:29:59;102482.45;;;-5.16;85.93
68712;BME280;55690;51.566;19.198;2024-01-11T07:34:05;102475.50;;;-5.10;85.49
68712;BME280;55690;51.566;19.198;2024-01-11T07:38:12;102490.76;;;-4.96;86.00
68712;BME280;55690;51.566;19.198;2024-01-11T07:42:18;102473.79;;;-5.06;86.71
68712;BME280;55690;51.566;19.198;2024-01-11T07:46:24;102474.88;;;-4.95;86.61
68712;BME280;55690;51.566;19.198;2024-01-11T07:50:31;102479.41;;;-4.89;86.75
68712;BME280;55690;51.566;19.198;2024-01-11T07:54:37;102467.93;;;-4.88;87.09
68712;BME280;55690;51.566;19.198;2024-01-11T07:58:43;102467.02;;;-4.90;87.97
68712;BME280;55690;51.566;19.198;2024-01-11T08:02:49;102467.59;;;-4.54;87.41
68712;BME280;55690;51.566;19.198;2024-01-11T08:06:55;102480.90;;;-4.51;87.49
68712;BME280;55690;51.566;19.198;2024-01-11T08:11:02;102464.99;;;-4.51;87.45
68712;BME280;55690;51.566;19.198;2024-01-11T08:15:08;102483.61;;;-4.48;87.79
68712;BME280;55690;51.566;19.198;2024-01-11T08:19:16;102478.15;;;-4.57;87.69
68712;BME280;55690;51.566;19.198;2024-01-11T08:23:20;102477.41;;;-4.48;88.13
68712;BME280;55690;51.566;19.198;2024-01-11T08:27:26;102489.05;;;-4.39;87.95
68712;BME280;55690;51.566;19.198;2024-01-11T08:31:33;102477.41;;;-4.48;88.84
68712;BME280;55690;51.566;19.198;2024-01-11T08:35:39;102462.52;;;-4.40;89.33
68712;BME280;55690;51.566;19.198;2024-01-11T08:39:45;102476.71;;;-4.37;89.47
68712;BME280;55690;51.566;19.198;2024-01-11T08:43:51;102486.98;;;-4.58;90.58
68712;BME280;55690;51.566;19.198;2024-01-11T08:47:57;102493.09;;;-4.62;91.39
68712;BME280;55690;51.566;19.198;2024-01-11T08:52:04;102465.93;;;-4.47;91.25
68712;BME280;55690;51.566;19.198;2024-01-11T08:56:10;102459.92;;;-4.36;91.34
68712;BME280;55690;51.566;19.198;2024-01-11T09:00:16;102482.25;;;-4.18;91.54
68712;BME280;55690;51.566;19.198;2024-01-11T09:04:22;102491.17;;;-4.13;91.47
68712;BME280;55690;51.566;19.198;2024-01-11T09:08:29;102500.63;;;-4.33;92.27
68712;BME280;55690;51.566;19.198;2024-01-11T09:12:35;102496.52;;;-4.10;91.98
68712;BME280;55690;51.566;19.198;2024-01-11T09:16:41;102484.98;;;-4.14;92.52
68712;BME280;55690;51.566;19.198;2024-01-11T09:20:47;102488.83;;;-3.92;92.49
68712;BME280;55690;51.566;19.198;2024-01-11T09:24:53;102471.78;;;-4.09;92.91
68712;BME280;55690;51.566;19.198;2024-01-11T09:28:59;102490.32;;;-4.11;93.78
68712;BME280;55690;51.566;19.198;2024-01-11T09:33:06;102487.06;;;-3.91;93.77
68712;BME280;55690;51.566;19.198;2024-01-11T09:41:07;102494.46;;;-4.29;95.64
68712;BME280;55690;51.566;19.198;2024-01-11T09:45:16;102485.96;;;-4.07;95.49
68712;BME280;55690;51.566;19.198;2024-01-11T09:49:19;102478.91;;;-4.05;95.27
68712;BME280;55690;51.566;19.198;2024-01-11T09:53:24;102480.82;;;-3.95;95.94
68712;BME280;55690;51.566;19.198;2024-01-11T09:57:32;102474.70;;;-3.91;96.49
68712;BME280;55690;51.566;19.198;2024-01-11T10:01:34;102462.52;;;-3.72;95.74
68712;BME280;55690;51.566;19.198;2024-01-11T10:05:41;102458.24;;;-3.59;95.85
68712;BME280;55690;51.566;19.198;2024-01-11T10:09:47;102457.91;;;-3.87;97.60
68712;BME280;55690;51.566;19.198;2024-01-11T10:13:57;102458.09;;;-3.72;97.99
68712;BME280;55690;51.566;19.198;2024-01-11T10:18:00;102455.45;;;-3.72;98.59
68712;BME280;55690;51.566;19.198;2024-01-11T10:22:05;102449.23;;;-3.74;99.48
68712;BME280;55690;51.566;19.198;2024-01-11T10:26:11;102464.27;;;-3.73;99.33
68712;BME280;55690;51.566;19.198;2024-01-11T10:30:18;102442.88;;;-3.85;100.00
68712;BME280;55690;51.566;19.198;2024-01-11T10:34:24;102450.96;;;-3.76;100.00
68712;BME280;55690;51.566;19.198;2024-01-11T10:38:30;102447.64;;;-3.58;100.00
68712;BME280;55690;51.566;19.198;2024-01-11T10:46:53;102446.92;;;-3.40;99.67
68712;BME280;55690;51.566;19.198;2024-01-11T10:51:00;102431.09;;;-3.31;99.49
68712;BME280;55690;51.566;19.198;2024-01-11T10:55:04;102425.83;;;-3.26;99.38
68712;BME280;55690;51.566;19.198;2024-01-11T10:59:06;102416.06;;;-3.29;99.98
68712;BME280;55690;51.566;19.198;2024-01-11T11:03:09;102410.01;;;-3.14;99.25
68712;BME280;55690;51.566;19.198;2024-01-11T11:07:14;102403.91;;;-3.04;99.19
68712;BME280;55690;51.566;19.198;2024-01-11T11:11:20;102412.63;;;-3.17;100.00
68712;BME280;55690;51.566;19.198;2024-01-11T11:15:27;102411.68;;;-3.24;100.00
68712;BME280;55690;51.566;19.198;2024-01-11T11:19:32;102403.73;;;-3.24;100.00
68712;BME280;55690;51.566;19.198;2024-01-11T11:23:38;102390.59;;;-3.07;100.00
68712;BME280;55690;51.566;19.198;2024-01-11T11:27:44;102395.10;;;-2.94;100.00
68712;BME280;55690;51.566;19.198;2024-01-11T11:31:51;102374.52;;;-3.21;100.00
68712;BME280;55690;51.566;19.198;2024-01-11T11:35:58;102352.51;;;-3.03;100.00
68712;BME280;55690;51.566;19.198;2024-01-11T11:40:04;102355.13;;;-3.11;100.00
68712;BME280;55690;51.566;19.198;2024-01-11T11:44:12;102354.34;;;-2.94;100.00
68712;BME280;55690;51.566;19.198;2024-01-11T11:52:29;102359.70;;;-2.90;100.00
68712;BME280;55690;51.566;19.198;2024-01-11T11:56:32;102357.88;;;-2.95;100.00
68712;BME280;55690;51.566;19.198;2024-01-11T12:00:35;102350.00;;;-2.83;100.00
68712;BME280;55690;51.566;19.198;2024-01-11T12:04:40;102359.67;;;-2.93;100.00
68712;BME280;55690;51.566;19.198;2024-01-11T12:08:48;102336.58;;;-3.05;100.00
68712;BME280;55690;51.566;19.198;2024-01-11T12:12:53;102326.01;;;-2.92;100.00
68712;BME280;55690;51.566;19.198;2024-01-11T12:16:59;102317.17;;;-2.88;100.00
68712;BME280;55690;51.566;19.198;2024-01-11T12:21:05;102315.47;;;-2.79;100.00
68712;BME280;55690;51.566;19.198;2024-01-11T12:25:11;102315.47;;;-2.79;100.00
68712;BME280;55690;51.566;19.198;2024-01-11T12:29:18;102294.27;;;-2.68;100.00
68712;BME280;55690;51.566;19.198;2024-01-11T12:33:25;102305.66;;;-2.87;100.00
68712;BME280;55690;51.566;19.198;2024-01-11T12:37:30;102300.45;;;-2.72;100.00
68712;BME280;55690;51.566;19.198;2024-01-11T12:41:36;102299.60;;;-2.59;100.00
68712;BME280;55690;51.566;19.198;2024-01-11T12:45:42;102298.70;;;-2.65;100.00
68712;BME280;55690;51.566;19.198;2024-01-11T12:49:49;102293.40;;;-2.59;100.00
68712;BME280;55690;51.566;19.198;2024-01-11T12:53:57;102299.57;;;-2.70;100.00
68712;BME280;55690;51.566;19.198;2024-01-11T12:58:07;102304.91;;;-2.68;100.00
68712;BME280;55690;51.566;19.198;2024-01-11T13:02:10;102306.71;;;-2.61;100.00
68712;BME280;55690;51.566;19.198;2024-01-11T13:06:15;102310.25;;;-2.63;100.00
68712;BME280;55690;51.566;19.198;2024-01-11T13:10:20;102305.84;;;-2.54;100.00
68712;BME280;55690;51.566;19.198;2024-01-11T13:14:25;102301.41;;;-2.52;100.00
68712;BME280;55690;51.566;19.198;2024-01-11T13:18:35;102306.70;;;-2.58;100.00
68712;BME280;55690;51.566;19.198;2024-01-11T13:22:38;102306.77;;;-2.46;100.00
68712;BME280;55690;51.566;19.198;2024-01-11T13:26:44;102296.13;;;-2.43;100.00
68712;BME280;55690;51.566;19.198;2024-01-11T13:30:50;102293.48;;;-2.41;100.00
68712;BME280;55690;51.566;19.198;2024-01-11T13:34:56;102311.23;;;-2.42;100.00
68712;BME280;55690;51.566;19.198;2024-01-11T13:39:03;102308.59;;;-2.34;100.00
68712;BME280;55690;51.566;19.198;2024-01-11T13:43:09;102320.90;;;-2.60;100.00
68712;BME280;55690;51.566;19.198;2024-01-11T13:47:15;102320.05;;;-2.47;100.00
68712;BME280;55690;51.566;19.198;2024-01-11T13:51:21;102325.43;;;-2.37;100.00
68712;BME280;55690;51.566;19.198;2024-01-11T13:55:27;102321.88;;;-2.39;100.00
68712;BME280;55690;51.566;19.198;2024-01-11T13:59:35;102312.05;;;-2.50;100.00
68712;BME280;55690;51.566;19.198;2024-01-11T14:03:40;102321.90;;;-2.34;100.00
68712;BME280;55690;51.566;19.198;2024-01-11T14:07:46;102322.83;;;-2.24;100.00
68712;BME280;55690;51.566;19.198;2024-01-11T14:11:52;102307.75;;;-2.24;100.00
68712;BME280;55690;51.566;19.198;2024-01-11T14:15:58;102318.37;;;-2.30;100.00
68712;BME280;55690;51.566;19.198;2024-01-11T14:20:05;102313.92;;;-2.31;100.00
68712;BME280;55690;51.566;19.198;2024-01-11T14:24:15;102298.80;;;-2.43;100.00
68712;BME280;55690;51.566;19.198;2024-01-11T14:28:17;102283.80;;;-2.13;100.00
68712;BME280;55690;51.566;19.198;2024-01-11T14:32:24;102292.70;;;-2.10;100.00
68712;BME280;55690;51.566;19.198;2024-01-11T14:36:30;102290.03;;;-2.08;100.00
68712;BME280;55690;51.566;19.198;2024-01-11T14:40:35;102289.19;;;-1.95;100.00
68712;BME280;55690;51.566;19.198;2024-01-11T14:44:42;102290.05;;;-2.02;100.00
68712;BME280;55690;51.566;19.198;2024-01-11T14:48:48;102289.15;;;-2.09;100.00
68712;BME280;55690;51.566;19.198;2024-01-11T14:52:54;102284.73;;;-2.04;100.00
68712;BME280;55690;51.566;19.198;2024-01-11T14:57:00;102283.83;;;-2.07;100.00
68712;BME280;55690;51.566;19.198;2024-01-11T15:01:06;102282.97;;;-1.97;100.00
68712;BME280;55690;51.566;19.198;2024-01-11T15:05:13;102276.77;;;-1.91;100.00
68712;BME280;55690;51.566;19.198;2024-01-11T15:09:19;102285.66;;;-1.88;100.00
68712;BME280;55690;51.566;19.198;2024-01-11T15:13:25;102293.64;;;-1.88;100.00
68712;BME280;55690;51.566;19.198;2024-01-11T15:17:31;102307.85;;;-1.84;100.00
68712;BME280;55690;51.566;19.198;2024-01-11T15:21:40;102314.05;;;-1.90;100.00
68712;BME280;55690;51.566;19.198;2024-01-11T15:25:44;102315.80;;;-1.95;100.00
68712;BME280;55690;51.566;19.198;2024-01-11T15:29:50;102318.49;;;-1.87;100.00
68712;BME280;55690;51.566;19.198;2024-01-11T15:33:56;102301.62;;;-1.91;100.00
68712;BME280;55690;51.566;19.198;2024-01-11T15:38:02;102312.27;;;-1.73;100.00
68712;BME280;55690;51.566;19.198;2024-01-11T15:42:08;102308.76;;;-1.76;100.00
68712;BME280;55690;51.566;19.198;2024-01-11T15:46:15;102300.75;;;-1.70;100.00
68712;BME280;55690;51.566;19.198;2024-01-11T15:50:21;102313.19;;;-1.66;100.00
68712;BME280;55690;51.566;19.198;2024-01-11T15:54:27;102314.07;;;-1.85;100.00
68712;BME280;55690;51.566;19.198;2024-01-11T15:58:33;102313.18;;;-1.83;100.00
68712;BME280;55690;51.566;19.198;2024-01-11T16:02:40;102330.06;;;-1.62;100.00
68712;BME280;55690;51.566;19.198;2024-01-11T16:06:45;102328.26;;;-1.73;100.00
68712;BME280;55690;51.566;19.198;2024-01-11T16:10:52;102324.74;;;-1.56;100.00
68712;BME280;55690;51.566;19.198;2024-01-11T16:14:59;102330.96;;;-1.54;100.00
68712;BME280;55690;51.566;19.198;2024-01-11T16:19:04;102332.72;;;-1.64;100.00
68712;BME280;55690;51.566;19.198;2024-01-11T16:23:10;102325.64;;;-1.54;100.00
68712;BME280;55690;51.566;19.198;2024-01-11T16:27:16;102331.85;;;-1.46;100.00
68712;BME280;55690;51.566;19.198;2024-01-11T16:31:23;102314.98;;;-1.48;100.00
68712;BME280;55690;51.566;19.198;2024-01-11T16:35:29;102318.52;;;-1.55;100.00
68712;BME280;55690;51.566;19.198;2024-01-11T16:39:39;102322.09;;;-1.44;100.00
68712;BME280;55690;51.566;19.198;2024-01-11T16:43:43;102324.73;;;-1.61;100.00
68712;BME280;55690;51.566;19.198;2024-01-11T16:47:47;102339.86;;;-1.43;100.00
68712;BME280;55690;51.566;19.198;2024-01-11T16:51:54;102342.52;;;-1.49;100.00
68712;BME280;55690;51.566;19.198;2024-01-11T16:56:00;102353.16;;;-1.52;100.00
68712;BME280;55690;51.566;19.198;2024-01-11T17:00:06;102354.08;;;-1.40;100.00
68712;BME280;55690;51.566;19.198;2024-01-11T17:04:12;102343.42;;;-1.37;100.00
68712;BME280;55690;51.566;19.198;2024-01-11T17:08:18;102345.17;;;-1.28;100.00
68712;BME280;55690;51.566;19.198;2024-01-11T17:12:25;102344.29;;;-1.28;100.00
68712;BME280;55690;51.566;19.198;2024-01-11T17:16:31;102353.19;;;-1.39;100.00
68712;BME280;55690;51.566;19.198;2024-01-11T17:20:37;102346.07;;;-1.29;100.00
68712;BME280;55690;51.566;19.198;2024-01-11T17:24:43;102335.43;;;-1.37;100.00
68712;BME280;55690;51.566;19.198;2024-01-11T17:28:49;102349.62;;;-1.21;100.00
68712;BME280;55690;51.566;19.198;2024-01-11T17:32:56;102354.95;;;-1.22;100.00
68712;BME280;55690;51.566;19.198;2024-01-11T17:37:02;102357.63;;;-1.13;100.00
68712;BME280;55690;51.566;19.198;2024-01-11T17:41:08;102354.08;;;-1.06;100.00
68712;BME280;55690;51.566;19.198;2024-01-11T17:45:14;102349.63;;;-1.04;100.00
68712;BME280;55690;51.566;19.198;2024-01-11T17:49:20;102352.28;;;-1.12;100.00
68712;BME280;55690;51.566;19.198;2024-01-11T17:53:27;102350.52;;;-1.13;100.00
68712;BME280;55690;51.566;19.198;2024-01-11T17:57:33;102341.63;;;-1.09;100.00
68712;BME280;55690;51.566;19.198;2024-01-11T18:01:39;102350.52;;;-1.04;100.00
68712;BME280;55690;51.566;19.198;2024-01-11T18:05:45;102358.52;;;-0.94;100.00
68712;BME280;55690;51.566;19.198;2024-01-11T18:09:51;102346.07;;;-0.92;100.00
68712;BME280;55690;51.566;19.198;2024-01-11T18:13:58;102349.63;;;-0.90;100.00
68712;BME280;55690;51.566;19.198;2024-01-11T18:18:04;102335.41;;;-1.12;100.00
68712;BME280;55690;51.566;19.198;2024-01-11T18:22:10;102343.41;;;-0.98;100.00
68712;BME280;55690;51.566;19.198;2024-01-11T18:26:16;102356.73;;;-0.92;100.00
68712;BME280;55690;51.566;19.198;2024-01-11T18:30:22;102347.81;;;-0.82;100.00
68712;BME280;55690;51.566;19.198;2024-01-11T18:34:28;102350.47;;;-0.81;100.00
68712;BME280;55690;51.566;19.198;2024-01-11T18:38:35;102349.59;;;-0.81;100.00
68712;BME280;55690;51.566;19.198;2024-01-11T18:42:41;102344.30;;;-0.90;100.00
68712;BME280;55690;51.566;19.198;2024-01-11T18:46:47;102350.46;;;-0.75;100.00
68712;BME280;55690;51.566;19.198;2024-01-11T18:50:53;102349.59;;;-0.78;100.00
68712;BME280;55690;51.566;19.198;2024-01-11T18:54:59;102312.24;;;-0.83;100.00
68712;BME280;55690;51.566;19.198;2024-01-11T18:59:06;102333.58;;;-0.75;100.00
68712;BME280;55690;51.566;19.198;2024-01-11T19:03:12;102336.23;;;-0.77;100.00
68712;BME280;55690;51.566;19.198;2024-01-11T19:07:18;102347.78;;;-0.67;100.00
68712;BME280;55690;51.566;19.198;2024-01-11T19:11:24;102353.10;;;-0.58;100.00
68712;BME280;55690;51.566;19.198;2024-01-11T19:15:30;102354.89;;;-0.60;100.00
68712;BME280;55690;51.566;19.198;2024-01-11T19:19:37;102360.21;;;-0.54;100.00
68712;BME280;55690;51.566;19.198;2024-01-11T19:23:43;102361.03;;;-0.37;100.00
68712;BME280;55690;51.566;19.198;2024-01-11T19:27:49;102362.88;;;-0.52;100.00
68712;BME280;55690;51.566;19.198;2024-01-11T19:31:55;102367.33;;;-0.53;100.00
68712;BME280;55690;51.566;19.198;2024-01-11T19:36:01;102374.43;;;-0.46;100.00
68712;BME280;55690;51.566;19.198;2024-01-11T19:40:08;102374.38;;;-0.37;100.00
68712;BME280;55690;51.566;19.198;2024-01-11T19:44:14;102391.33;;;-0.44;100.00
68712;BME280;55690;51.566;19.198;2024-01-11T19:48:20;102384.16;;;-0.32;100.00
68712;BME280;55690;51.566;19.198;2024-01-11T19:52:26;102393.93;;;-0.28;100.00
68712;BME280;55690;51.566;19.198;2024-01-11T19:56:32;102397.48;;;-0.26;100.00
68712;BME280;55690;51.566;19.198;2024-01-11T20:00:38;102390.34;;;-0.20;100.00
68712;BME280;55690;51.566;19.198;2024-01-11T20:04:45;102384.13;;;-0.22;100.00
68712;BME280;55690;51.566;19.198;2024-01-11T20:08:51;102392.15;;;-0.26;100.00
68712;BME280;55690;51.566;19.198;2024-01-11T20:12:57;102392.14;;;-0.25;100.00
68712;BME280;55690;51.566;19.198;2024-01-11T20:17:03;102406.36;;;-0.18;100.00
68712;BME280;55690;51.566;19.198;2024-01-11T20:21:10;102408.13;;;-0.14;100.00
68712;BME280;55690;51.566;19.198;2024-01-11T20:25:15;102418.84;;;-0.28;100.00
68712;BME280;55690;51.566;19.198;2024-01-11T20:29:22;102426.80;;;-0.04;100.00
68712;BME280;55690;51.566;19.198;2024-01-11T20:33:28;102427.69;;;-0.03;100.00
68712;BME280;55690;51.566;19.198;2024-01-11T20:37:34;102438.37;;;-0.03;100.00
68712;BME280;55690;51.566;19.198;2024-01-11T20:41:43;102451.72;;;-0.05;100.00
68712;BME280;55690;51.566;19.198;2024-01-11T20:45:46;102447.27;;;-0.04;100.00
68712;BME280;55690;51.566;19.198;2024-01-11T20:49:53;102439.19;;;0.10;100.00
68712;BME280;55690;51.566;19.198;2024-01-11T20:54:00;102444.55;;;0.02;100.00
68712;BME280;55690;51.566;19.198;2024-01-11T20:58:08;102467.65;;;0.17;100.00
68712;BME280;55690;51.566;19.198;2024-01-11T21:02:11;102461.42;;;0.13;100.00
68712;BME280;55690;51.566;19.198;2024-01-11T21:06:17;102463.20;;;0.17;100.00
68712;BME280;55690;51.566;19.198;2024-01-11T21:10:24;102469.44;;;0.19;100.00
68712;BME280;55690;51.566;19.198;2024-01-11T21:14:30;102465.84;;;0.22;100.00